sensor_id;sensor_type;location;lat;lon;timestamp;P1;durP1;ratioP1;P2;durP2;ratioP2
77146;SDS011;66121;52.584;9.694;2023-05-20T00:01:08;3.30;;;1.80;;
77146;SDS011;66121;52.584;9.694;2023-05-20T00:03:33;2.50;;;1.90;;
77146;SDS011;66121;52.584;9.694;2023-05-20T00:05:58;3.28;;;2.05;;
77146;SDS011;66121;52.584;9.694;2023-05-20T00:08:23;3.93;;;2.10;;
77146;SDS011;66121;52.584;9.694;2023-05-20T00:10:49;4.18;;;2.00;;
77146;SDS011;66121;52.584;9.694;2023-05-20T00:13:14;2.53;;;1.80;;
77146;SDS011;66121;52.584;9.694;2023-05-20T00:15:40;2.53;;;1.60;;
77146;SDS011;66121;52.584;9.694;2023-05-20T00:18:05;3.10;;;1.70;;
77146;SDS011;66121;52.584;9.694;2023-05-20T00:20:31;2.78;;;1.70;;
77146;SDS011;66121;52.584;9.694;2023-05-20T00:22:57;2.93;;;2.20;;
77146;SDS011;66121;52.584;9.694;2023-05-20T00:25:22;6.63;;;2.00;;
77146;SDS011;66121;52.584;9.694;2023-05-20T00:27:47;4.17;;;2.00;;
77146;SDS011;66121;52.584;9.694;2023-05-20T00:30:13;3.10;;;2.03;;
77146;SDS011;66121;52.584;9.694;2023-05-20T00:32:38;6.27;;;2.07;;
77146;SDS011;66121;52.584;9.694;2023-05-20T00:35:03;4.07;;;2.03;;
77146;SDS011;66121;52.584;9.694;2023-05-20T00:37:29;2.70;;;1.63;;
77146;SDS011;66121;52.584;9.694;2023-05-20T00:39:55;2.90;;;1.67;;
77146;SDS011;66121;52.584;9.694;2023-05-20T00:42:20;2.95;;;1.90;;
77146;SDS011;66121;52.584;9.694;2023-05-20T00:44:46;3.05;;;1.90;;
77146;SDS011;66121;52.584;9.694;2023-05-20T00:47:12;3.75;;;1.80;;
77146;SDS011;66121;52.584;9.694;2023-05-20T00:49:39;4.88;;;2.00;;
77146;SDS011;66121;52.584;9.694;2023-05-20T00:52:04;2.38;;;1.67;;
77146;SDS011;66121;52.584;9.694;2023-05-20T00:54:31;3.75;;;1.88;;
77146;SDS011;66121;52.584;9.694;2023-05-20T00:56:56;2.67;;;1.88;;
77146;SDS011;66121;52.584;9.694;2023-05-20T00:59:23;2.70;;;1.70;;
77146;SDS011;66121;52.584;9.694;2023-05-20T01:01:50;3.00;;;1.80;;
77146;SDS011;66121;52.584;9.694;2023-05-20T01:04:16;3.45;;;1.80;;
77146;SDS011;66121;52.584;9.694;2023-05-20T01:06:41;5.22;;;2.28;;
77146;SDS011;66121;52.584;9.694;2023-05-20T01:09:06;3.67;;;2.00;;
77146;SDS011;66121;52.584;9.694;2023-05-20T01:11:33;4.60;;;2.08;;
77146;SDS011;66121;52.584;9.694;2023-05-20T01:14:07;3.50;;;1.77;;
77146;SDS011;66121;52.584;9.694;2023-05-20T01:16:34;3.78;;;1.63;;
77146;SDS011;66121;52.584;9.694;2023-05-20T01:19:00;6.53;;;1.92;;
77146;SDS011;66121;52.584;9.694;2023-05-20T01:21:29;5.68;;;1.80;;
77146;SDS011;66121;52.584;9.694;2023-05-20T01:23:54;5.05;;;2.08;;
77146;SDS011;66121;52.584;9.694;2023-05-20T01:26:20;2.50;;;1.80;;
77146;SDS011;66121;52.584;9.694;2023-05-20T01:28:45;3.45;;;1.90;;
77146;SDS011;66121;52.584;9.694;2023-05-20T01:31:13;4.45;;;1.80;;
77146;SDS011;66121;52.584;9.694;2023-05-20T01:33:42;1.95;;;1.50;;
77146;SDS011;66121;52.584;9.694;2023-05-20T01:36:09;3.30;;;1.60;;
77146;SDS011;66121;52.584;9.694;2023-05-20T01:38:35;3.45;;;1.63;;
77146;SDS011;66121;52.584;9.694;2023-05-20T01:41:01;2.83;;;1.67;;
77146;SDS011;66121;52.584;9.694;2023-05-20T01:43:29;4.13;;;1.90;;
77146;SDS011;66121;52.584;9.694;2023-05-20T01:45:55;3.33;;;1.80;;
77146;SDS011;66121;52.584;9.694;2023-05-20T01:48:20;2.33;;;1.65;;
77146;SDS011;66121;52.584;9.694;2023-05-20T01:50:45;2.70;;;1.43;;
77146;SDS011;66121;52.584;9.694;2023-05-20T01:53:11;3.83;;;2.40;;
77146;SDS011;66121;52.584;9.694;2023-05-20T01:55:37;3.45;;;1.60;;
77146;SDS011;66121;52.584;9.694;2023-05-20T01:58:02;3.33;;;1.58;;
77146;SDS011;66121;52.584;9.694;2023-05-20T02:00:28;3.80;;;1.80;;
77146;SDS011;66121;52.584;9.694;2023-05-20T02:02:53;3.27;;;1.80;;
77146;SDS011;66121;52.584;9.694;2023-05-20T02:05:18;3.07;;;2.23;;
77146;SDS011;66121;52.584;9.694;2023-05-20T02:07:44;2.47;;;1.53;;
77146;SDS011;66121;52.584;9.694;2023-05-20T02:10:09;2.63;;;1.73;;
77146;SDS011;66121;52.584;9.694;2023-05-20T02:12:34;2.70;;;1.80;;
77146;SDS011;66121;52.584;9.694;2023-05-20T02:15:00;2.97;;;1.70;;
77146;SDS011;66121;52.584;9.694;2023-05-20T02:17:25;2.28;;;1.67;;
77146;SDS011;66121;52.584;9.694;2023-05-20T02:19:50;3.07;;;1.80;;
77146;SDS011;66121;52.584;9.694;2023-05-20T02:22:16;5.07;;;1.70;;
77146;SDS011;66121;52.584;9.694;2023-05-20T02:24:42;3.92;;;1.77;;
77146;SDS011;66121;52.584;9.694;2023-05-20T02:27:07;3.60;;;1.90;;
77146;SDS011;66121;52.584;9.694;2023-05-20T02:29:32;4.20;;;1.70;;
77146;SDS011;66121;52.584;9.694;2023-05-20T02:31:58;3.45;;;1.70;;
77146;SDS011;66121;52.584;9.694;2023-05-20T02:34:23;2.47;;;1.70;;
77146;SDS011;66121;52.584;9.694;2023-05-20T02:36:50;4.78;;;1.90;;
77146;SDS011;66121;52.584;9.694;2023-05-20T02:39:15;4.15;;;2.00;;
77146;SDS011;66121;52.584;9.694;2023-05-20T02:41:41;3.03;;;1.70;;
77146;SDS011;66121;52.584;9.694;2023-05-20T02:44:06;2.87;;;1.70;;
77146;SDS011;66121;52.584;9.694;2023-05-20T02:46:31;4.63;;;1.77;;
77146;SDS011;66121;52.584;9.694;2023-05-20T02:48:57;3.40;;;1.80;;
77146;SDS011;66121;52.584;9.694;2023-05-20T02:51:22;3.37;;;1.80;;
77146;SDS011;66121;52.584;9.694;2023-05-20T02:53:48;3.22;;;2.03;;
77146;SDS011;66121;52.584;9.694;2023-05-20T02:56:13;6.07;;;1.87;;
77146;SDS011;66121;52.584;9.694;2023-05-20T02:58:38;5.23;;;1.60;;
77146;SDS011;66121;52.584;9.694;2023-05-20T03:01:03;2.75;;;1.70;;
77146;SDS011;66121;52.584;9.694;2023-05-20T03:03:29;3.42;;;2.00;;
77146;SDS011;66121;52.584;9.694;2023-05-20T03:05:54;3.38;;;1.80;;
77146;SDS011;66121;52.584;9.694;2023-05-20T03:08:20;3.60;;;1.93;;
77146;SDS011;66121;52.584;9.694;2023-05-20T03:10:46;2.95;;;1.90;;
77146;SDS011;66121;52.584;9.694;2023-05-20T03:13:12;3.15;;;1.60;;
77146;SDS011;66121;52.584;9.694;2023-05-20T03:15:39;3.00;;;1.52;;
77146;SDS011;66121;52.584;9.694;2023-05-20T03:18:05;3.05;;;1.90;;
77146;SDS011;66121;52.584;9.694;2023-05-20T03:20:32;2.90;;;1.90;;
77146;SDS011;66121;52.584;9.694;2023-05-20T03:23:01;3.35;;;1.88;;
77146;SDS011;66121;52.584;9.694;2023-05-20T03:25:27;3.35;;;2.38;;
77146;SDS011;66121;52.584;9.694;2023-05-20T03:27:52;4.35;;;2.00;;
77146;SDS011;66121;52.584;9.694;2023-05-20T03:30:17;3.07;;;1.80;;
77146;SDS011;66121;52.584;9.694;2023-05-20T03:32:43;3.58;;;2.03;;
77146;SDS011;66121;52.584;9.694;2023-05-20T03:35:08;4.53;;;1.70;;
77146;SDS011;66121;52.584;9.694;2023-05-20T03:37:34;2.15;;;1.60;;
77146;SDS011;66121;52.584;9.694;2023-05-20T03:40:00;4.55;;;1.92;;
77146;SDS011;66121;52.584;9.694;2023-05-20T03:42:26;3.50;;;2.05;;
77146;SDS011;66121;52.584;9.694;2023-05-20T03:44:51;4.20;;;1.73;;
77146;SDS011;66121;52.584;9.694;2023-05-20T03:47:16;8.83;;;2.50;;
77146;SDS011;66121;52.584;9.694;2023-05-20T03:49:41;3.00;;;1.90;;
77146;SDS011;66121;52.584;9.694;2023-05-20T03:52:07;2.73;;;1.73;;
77146;SDS011;66121;52.584;9.694;2023-05-20T03:54:32;4.43;;;1.90;;
77146;SDS011;66121;52.584;9.694;2023-05-20T03:56:59;3.92;;;2.03;;
77146;SDS011;66121;52.584;9.694;2023-05-20T03:59:25;3.15;;;1.83;;
77146;SDS011;66121;52.584;9.694;2023-05-20T04:01:51;4.82;;;2.05;;
77146;SDS011;66121;52.584;9.694;2023-05-20T04:04:16;3.53;;;1.75;;
77146;SDS011;66121;52.584;9.694;2023-05-20T04:06:41;3.67;;;1.93;;
77146;SDS011;66121;52.584;9.694;2023-05-20T04:09:07;2.30;;;1.60;;
77146;SDS011;66121;52.584;9.694;2023-05-20T04:11:32;4.07;;;1.90;;
77146;SDS011;66121;52.584;9.694;2023-05-20T04:13:58;3.00;;;1.73;;
77146;SDS011;66121;52.584;9.694;2023-05-20T04:16:24;2.38;;;1.58;;
77146;SDS011;66121;52.584;9.694;2023-05-20T04:18:49;3.50;;;1.83;;
77146;SDS011;66121;52.584;9.694;2023-05-20T04:21:16;3.50;;;1.70;;
77146;SDS011;66121;52.584;9.694;2023-05-20T04:23:42;2.75;;;1.70;;
77146;SDS011;66121;52.584;9.694;2023-05-20T04:26:08;3.95;;;2.20;;
77146;SDS011;66121;52.584;9.694;2023-05-20T04:28:33;4.57;;;1.90;;
77146;SDS011;66121;52.584;9.694;2023-05-20T04:30:59;2.53;;;1.77;;
77146;SDS011;66121;52.584;9.694;2023-05-20T04:33:26;2.63;;;1.77;;
77146;SDS011;66121;52.584;9.694;2023-05-20T04:35:52;4.38;;;1.95;;
77146;SDS011;66121;52.584;9.694;2023-05-20T04:38:17;2.83;;;1.77;;
77146;SDS011;66121;52.584;9.694;2023-05-20T04:40:43;3.72;;;1.90;;
77146;SDS011;66121;52.584;9.694;2023-05-20T04:43:08;3.20;;;1.73;;
77146;SDS011;66121;52.584;9.694;2023-05-20T04:45:33;3.57;;;1.93;;
77146;SDS011;66121;52.584;9.694;2023-05-20T04:47:59;3.30;;;2.00;;
77146;SDS011;66121;52.584;9.694;2023-05-20T04:50:25;4.90;;;1.98;;
77146;SDS011;66121;52.584;9.694;2023-05-20T04:52:50;2.55;;;1.73;;
77146;SDS011;66121;52.584;9.694;2023-05-20T04:55:15;3.77;;;2.00;;
77146;SDS011;66121;52.584;9.694;2023-05-20T04:57:41;4.47;;;2.05;;
77146;SDS011;66121;52.584;9.694;2023-05-20T05:00:09;4.15;;;1.80;;
77146;SDS011;66121;52.584;9.694;2023-05-20T05:02:36;3.53;;;1.98;;
77146;SDS011;66121;52.584;9.694;2023-05-20T05:05:02;2.67;;;1.90;;
77146;SDS011;66121;52.584;9.694;2023-05-20T05:07:27;6.10;;;2.25;;
77146;SDS011;66121;52.584;9.694;2023-05-20T05:09:53;3.10;;;1.90;;
77146;SDS011;66121;52.584;9.694;2023-05-20T05:12:18;4.82;;;2.28;;
77146;SDS011;66121;52.584;9.694;2023-05-20T05:14:43;3.70;;;2.00;;
77146;SDS011;66121;52.584;9.694;2023-05-20T05:17:09;3.95;;;1.90;;
77146;SDS011;66121;52.584;9.694;2023-05-20T05:19:34;4.73;;;2.20;;
77146;SDS011;66121;52.584;9.694;2023-05-20T05:21:59;3.60;;;1.92;;
77146;SDS011;66121;52.584;9.694;2023-05-20T05:24:25;4.40;;;2.17;;
77146;SDS011;66121;52.584;9.694;2023-05-20T05:26:53;3.27;;;2.20;;
77146;SDS011;66121;52.584;9.694;2023-05-20T05:29:19;3.33;;;1.95;;
77146;SDS011;66121;52.584;9.694;2023-05-20T05:31:44;3.20;;;1.90;;
77146;SDS011;66121;52.584;9.694;2023-05-20T05:34:10;3.43;;;2.20;;
77146;SDS011;66121;52.584;9.694;2023-05-20T05:36:37;3.53;;;2.40;;
77146;SDS011;66121;52.584;9.694;2023-05-20T05:39:03;3.50;;;2.30;;
77146;SDS011;66121;52.584;9.694;2023-05-20T05:41:28;5.23;;;2.40;;
77146;SDS011;66121;52.584;9.694;2023-05-20T05:43:54;3.67;;;2.23;;
77146;SDS011;66121;52.584;9.694;2023-05-20T05:46:19;7.85;;;2.42;;
77146;SDS011;66121;52.584;9.694;2023-05-20T05:48:44;5.22;;;2.38;;
77146;SDS011;66121;52.584;9.694;2023-05-20T05:51:13;3.92;;;1.95;;
77146;SDS011;66121;52.584;9.694;2023-05-20T05:53:38;4.63;;;2.22;;
77146;SDS011;66121;52.584;9.694;2023-05-20T05:56:04;4.97;;;2.53;;
77146;SDS011;66121;52.584;9.694;2023-05-20T05:58:29;3.00;;;1.80;;
77146;SDS011;66121;52.584;9.694;2023-05-20T06:00:55;6.18;;;2.30;;
77146;SDS011;66121;52.584;9.694;2023-05-20T06:03:20;3.57;;;2.00;;
77146;SDS011;66121;52.584;9.694;2023-05-20T06:05:45;3.80;;;2.10;;
77146;SDS011;66121;52.584;9.694;2023-05-20T06:08:13;3.45;;;2.30;;
77146;SDS011;66121;52.584;9.694;2023-05-20T06:10:39;3.45;;;2.30;;
77146;SDS011;66121;52.584;9.694;2023-05-20T06:13:04;4.50;;;2.20;;
77146;SDS011;66121;52.584;9.694;2023-05-20T06:15:29;3.90;;;2.10;;
77146;SDS011;66121;52.584;9.694;2023-05-20T06:17:55;4.28;;;2.35;;
77146;SDS011;66121;52.584;9.694;2023-05-20T06:20:20;3.33;;;2.30;;
77146;SDS011;66121;52.584;9.694;2023-05-20T06:22:45;3.97;;;2.37;;
77146;SDS011;66121;52.584;9.694;2023-05-20T06:25:10;4.00;;;2.57;;
77146;SDS011;66121;52.584;9.694;2023-05-20T06:27:36;3.47;;;2.03;;
77146;SDS011;66121;52.584;9.694;2023-05-20T06:30:02;3.22;;;2.20;;
77146;SDS011;66121;52.584;9.694;2023-05-20T06:32:27;5.35;;;2.25;;
77146;SDS011;66121;52.584;9.694;2023-05-20T06:34:53;7.47;;;2.30;;
77146;SDS011;66121;52.584;9.694;2023-05-20T06:37:18;4.07;;;2.40;;
77146;SDS011;66121;52.584;9.694;2023-05-20T06:39:43;4.88;;;2.25;;
77146;SDS011;66121;52.584;9.694;2023-05-20T06:42:10;2.67;;;2.25;;
77146;SDS011;66121;52.584;9.694;2023-05-20T06:44:35;4.83;;;2.03;;
77146;SDS011;66121;52.584;9.694;2023-05-20T06:47:01;5.03;;;2.20;;
77146;SDS011;66121;52.584;9.694;2023-05-20T06:49:26;4.25;;;2.20;;
77146;SDS011;66121;52.584;9.694;2023-05-20T06:51:52;4.43;;;2.63;;
77146;SDS011;66121;52.584;9.694;2023-05-20T06:54:17;7.73;;;2.57;;
77146;SDS011;66121;52.584;9.694;2023-05-20T06:56:42;3.40;;;2.13;;
77146;SDS011;66121;52.584;9.694;2023-05-20T06:59:08;4.07;;;2.42;;
77146;SDS011;66121;52.584;9.694;2023-05-20T07:01:33;4.70;;;2.30;;
77146;SDS011;66121;52.584;9.694;2023-05-20T07:03:58;4.27;;;2.30;;
77146;SDS011;66121;52.584;9.694;2023-05-20T07:06:24;4.30;;;2.37;;
77146;SDS011;66121;52.584;9.694;2023-05-20T07:08:49;4.00;;;2.20;;
77146;SDS011;66121;52.584;9.694;2023-05-20T07:11:14;3.13;;;2.23;;
77146;SDS011;66121;52.584;9.694;2023-05-20T07:13:40;6.63;;;2.67;;
77146;SDS011;66121;52.584;9.694;2023-05-20T07:16:05;3.40;;;2.23;;
77146;SDS011;66121;52.584;9.694;2023-05-20T07:18:30;4.80;;;2.25;;
77146;SDS011;66121;52.584;9.694;2023-05-20T07:20:56;4.53;;;2.40;;
77146;SDS011;66121;52.584;9.694;2023-05-20T07:23:22;3.67;;;2.40;;
77146;SDS011;66121;52.584;9.694;2023-05-20T07:25:47;5.50;;;2.25;;
77146;SDS011;66121;52.584;9.694;2023-05-20T07:28:14;4.05;;;2.20;;
77146;SDS011;66121;52.584;9.694;2023-05-20T07:30:41;5.05;;;2.28;;
77146;SDS011;66121;52.584;9.694;2023-05-20T07:33:10;3.45;;;1.92;;
77146;SDS011;66121;52.584;9.694;2023-05-20T07:35:36;3.05;;;2.15;;
77146;SDS011;66121;52.584;9.694;2023-05-20T07:38:01;4.97;;;2.40;;
77146;SDS011;66121;52.584;9.694;2023-05-20T07:40:27;5.30;;;2.30;;
77146;SDS011;66121;52.584;9.694;2023-05-20T07:42:52;4.77;;;2.47;;
77146;SDS011;66121;52.584;9.694;2023-05-20T07:45:17;5.87;;;2.40;;
77146;SDS011;66121;52.584;9.694;2023-05-20T07:47:42;5.77;;;2.47;;
77146;SDS011;66121;52.584;9.694;2023-05-20T07:50:08;5.93;;;2.03;;
77146;SDS011;66121;52.584;9.694;2023-05-20T07:52:33;4.13;;;2.40;;
77146;SDS011;66121;52.584;9.694;2023-05-20T07:54:59;3.72;;;2.10;;
77146;SDS011;66121;52.584;9.694;2023-05-20T07:57:24;4.53;;;2.40;;
77146;SDS011;66121;52.584;9.694;2023-05-20T07:59:49;4.45;;;2.25;;
77146;SDS011;66121;52.584;9.694;2023-05-20T08:02:15;3.83;;;2.20;;
77146;SDS011;66121;52.584;9.694;2023-05-20T08:04:41;5.47;;;2.40;;
77146;SDS011;66121;52.584;9.694;2023-05-20T08:07:07;4.75;;;2.70;;
77146;SDS011;66121;52.584;9.694;2023-05-20T08:09:32;7.83;;;2.80;;
77146;SDS011;66121;52.584;9.694;2023-05-20T08:11:58;9.27;;;2.67;;
77146;SDS011;66121;52.584;9.694;2023-05-20T08:14:23;7.57;;;2.57;;
77146;SDS011;66121;52.584;9.694;2023-05-20T08:16:49;6.30;;;2.50;;
77146;SDS011;66121;52.584;9.694;2023-05-20T08:19:14;5.05;;;2.60;;
77146;SDS011;66121;52.584;9.694;2023-05-20T08:21:39;4.00;;;2.13;;
77146;SDS011;66121;52.584;9.694;2023-05-20T08:24:05;8.30;;;2.75;;
77146;SDS011;66121;52.584;9.694;2023-05-20T08:26:30;5.30;;;2.22;;
77146;SDS011;66121;52.584;9.694;2023-05-20T08:28:55;4.93;;;2.43;;
77146;SDS011;66121;52.584;9.694;2023-05-20T08:31:21;4.43;;;2.10;;
77146;SDS011;66121;52.584;9.694;2023-05-20T08:33:46;3.83;;;2.30;;
77146;SDS011;66121;52.584;9.694;2023-05-20T08:36:11;11.90;;;2.40;;
77146;SDS011;66121;52.584;9.694;2023-05-20T08:38:37;7.60;;;2.22;;
77146;SDS011;66121;52.584;9.694;2023-05-20T08:41:02;3.45;;;2.00;;
77146;SDS011;66121;52.584;9.694;2023-05-20T08:43:28;7.20;;;1.97;;
77146;SDS011;66121;52.584;9.694;2023-05-20T08:45:54;4.50;;;2.00;;
77146;SDS011;66121;52.584;9.694;2023-05-20T08:48:21;4.97;;;2.20;;
77146;SDS011;66121;52.584;9.694;2023-05-20T08:50:51;4.22;;;1.83;;
77146;SDS011;66121;52.584;9.694;2023-05-20T08:53:20;3.53;;;2.20;;
77146;SDS011;66121;52.584;9.694;2023-05-20T08:55:53;6.38;;;2.30;;
77146;SDS011;66121;52.584;9.694;2023-05-20T08:58:21;6.53;;;1.88;;
77146;SDS011;66121;52.584;9.694;2023-05-20T09:00:48;3.70;;;1.90;;
77146;SDS011;66121;52.584;9.694;2023-05-20T09:03:13;2.80;;;2.03;;
77146;SDS011;66121;52.584;9.694;2023-05-20T09:05:39;3.85;;;2.05;;
77146;SDS011;66121;52.584;9.694;2023-05-20T09:08:08;2.88;;;1.92;;
77146;SDS011;66121;52.584;9.694;2023-05-20T09:10:34;5.05;;;2.33;;
77146;SDS011;66121;52.584;9.694;2023-05-20T09:13:01;3.72;;;1.80;;
77146;SDS011;66121;52.584;9.694;2023-05-20T09:15:28;7.57;;;2.00;;
77146;SDS011;66121;52.584;9.694;2023-05-20T09:18:00;4.03;;;2.13;;
77146;SDS011;66121;52.584;9.694;2023-05-20T09:20:27;6.70;;;2.47;;
77146;SDS011;66121;52.584;9.694;2023-05-20T09:23:04;4.72;;;1.83;;
77146;SDS011;66121;52.584;9.694;2023-05-20T09:25:31;4.88;;;2.10;;
77146;SDS011;66121;52.584;9.694;2023-05-20T09:27:56;6.45;;;2.00;;
77146;SDS011;66121;52.584;9.694;2023-05-20T09:30:22;3.40;;;2.20;;
77146;SDS011;66121;52.584;9.694;2023-05-20T09:32:54;4.28;;;1.83;;
77146;SDS011;66121;52.584;9.694;2023-05-20T09:35:21;4.32;;;2.00;;
77146;SDS011;66121;52.584;9.694;2023-05-20T09:37:47;4.68;;;2.22;;
77146;SDS011;66121;52.584;9.694;2023-05-20T09:40:16;4.13;;;1.90;;
77146;SDS011;66121;52.584;9.694;2023-05-20T09:43:03;2.85;;;1.75;;
77146;SDS011;66121;52.584;9.694;2023-05-20T09:45:32;3.67;;;2.00;;
77146;SDS011;66121;52.584;9.694;2023-05-20T09:47:58;4.38;;;1.80;;
77146;SDS011;66121;52.584;9.694;2023-05-20T09:50:23;3.35;;;1.90;;
77146;SDS011;66121;52.584;9.694;2023-05-20T09:52:50;3.00;;;1.90;;
77146;SDS011;66121;52.584;9.694;2023-05-20T09:55:18;6.22;;;2.47;;
77146;SDS011;66121;52.584;9.694;2023-05-20T09:57:45;4.05;;;2.10;;
77146;SDS011;66121;52.584;9.694;2023-05-20T10:00:11;4.80;;;2.20;;
77146;SDS011;66121;52.584;9.694;2023-05-20T10:02:42;3.30;;;2.20;;
77146;SDS011;66121;52.584;9.694;2023-05-20T10:05:11;3.53;;;2.13;;
77146;SDS011;66121;52.584;9.694;2023-05-20T10:10:35;3.92;;;2.80;;
77146;SDS011;66121;52.584;9.694;2023-05-20T10:13:21;5.65;;;3.03;;
77146;SDS011;66121;52.584;9.694;2023-05-20T10:19:11;4.65;;;3.45;;
77146;SDS011;66121;52.584;9.694;2023-05-20T10:22:00;3.85;;;3.05;;
77146;SDS011;66121;52.584;9.694;2023-05-20T10:24:28;6.03;;;2.80;;
77146;SDS011;66121;52.584;9.694;2023-05-20T10:26:57;5.72;;;2.90;;
77146;SDS011;66121;52.584;9.694;2023-05-20T10:29:23;3.40;;;2.47;;
77146;SDS011;66121;52.584;9.694;2023-05-20T10:31:49;4.70;;;3.33;;
77146;SDS011;66121;52.584;9.694;2023-05-20T10:34:16;3.63;;;2.35;;
77146;SDS011;66121;52.584;9.694;2023-05-20T10:36:46;12.98;;;3.22;;
77146;SDS011;66121;52.584;9.694;2023-05-20T10:39:25;6.47;;;4.55;;
77146;SDS011;66121;52.584;9.694;2023-05-20T10:41:52;6.53;;;4.13;;
77146;SDS011;66121;52.584;9.694;2023-05-20T10:44:18;4.32;;;2.60;;
77146;SDS011;66121;52.584;9.694;2023-05-20T10:46:43;4.68;;;3.20;;
77146;SDS011;66121;52.584;9.694;2023-05-20T10:49:18;5.07;;;3.20;;
77146;SDS011;66121;52.584;9.694;2023-05-20T10:51:46;6.45;;;2.78;;
77146;SDS011;66121;52.584;9.694;2023-05-20T10:54:12;4.60;;;2.50;;
77146;SDS011;66121;52.584;9.694;2023-05-20T10:56:38;3.92;;;2.42;;
77146;SDS011;66121;52.584;9.694;2023-05-20T10:59:05;4.40;;;2.30;;
77146;SDS011;66121;52.584;9.694;2023-05-20T11:01:30;5.38;;;2.45;;
77146;SDS011;66121;52.584;9.694;2023-05-20T11:03:56;5.35;;;2.70;;
77146;SDS011;66121;52.584;9.694;2023-05-20T11:06:24;3.78;;;2.60;;
77146;SDS011;66121;52.584;9.694;2023-05-20T11:08:52;4.70;;;2.70;;
77146;SDS011;66121;52.584;9.694;2023-05-20T11:11:17;5.63;;;2.63;;
77146;SDS011;66121;52.584;9.694;2023-05-20T11:13:42;4.13;;;2.65;;
77146;SDS011;66121;52.584;9.694;2023-05-20T11:16:08;3.65;;;2.28;;
77146;SDS011;66121;52.584;9.694;2023-05-20T11:18:33;3.40;;;2.33;;
77146;SDS011;66121;52.584;9.694;2023-05-20T11:20:58;5.47;;;2.42;;
77146;SDS011;66121;52.584;9.694;2023-05-20T11:23:25;3.90;;;2.30;;
77146;SDS011;66121;52.584;9.694;2023-05-20T11:25:52;5.03;;;2.63;;
77146;SDS011;66121;52.584;9.694;2023-05-20T11:28:18;3.47;;;2.40;;
77146;SDS011;66121;52.584;9.694;2023-05-20T11:30:45;3.78;;;2.47;;
77146;SDS011;66121;52.584;9.694;2023-05-20T11:33:11;3.53;;;2.53;;
77146;SDS011;66121;52.584;9.694;2023-05-20T11:35:43;4.03;;;2.50;;
77146;SDS011;66121;52.584;9.694;2023-05-20T11:38:09;3.83;;;2.55;;
77146;SDS011;66121;52.584;9.694;2023-05-20T11:40:35;4.15;;;2.53;;
77146;SDS011;66121;52.584;9.694;2023-05-20T11:43:01;3.60;;;2.38;;
77146;SDS011;66121;52.584;9.694;2023-05-20T11:45:40;4.28;;;2.50;;
77146;SDS011;66121;52.584;9.694;2023-05-20T11:48:07;4.57;;;2.40;;
77146;SDS011;66121;52.584;9.694;2023-05-20T11:50:37;4.50;;;2.40;;
77146;SDS011;66121;52.584;9.694;2023-05-20T11:53:08;4.00;;;2.40;;
77146;SDS011;66121;52.584;9.694;2023-05-20T11:55:44;3.45;;;2.35;;
77146;SDS011;66121;52.584;9.694;2023-05-20T11:58:21;3.42;;;2.15;;
77146;SDS011;66121;52.584;9.694;2023-05-20T12:00:47;3.42;;;2.40;;
77146;SDS011;66121;52.584;9.694;2023-05-20T12:03:13;5.65;;;2.55;;
77146;SDS011;66121;52.584;9.694;2023-05-20T12:05:38;4.22;;;2.22;;
77146;SDS011;66121;52.584;9.694;2023-05-20T12:08:05;4.05;;;2.40;;
77146;SDS011;66121;52.584;9.694;2023-05-20T12:10:30;5.78;;;2.85;;
77146;SDS011;66121;52.584;9.694;2023-05-20T12:12:56;3.60;;;2.40;;
77146;SDS011;66121;52.584;9.694;2023-05-20T12:15:22;4.53;;;2.40;;
77146;SDS011;66121;52.584;9.694;2023-05-20T12:17:48;6.05;;;2.28;;
77146;SDS011;66121;52.584;9.694;2023-05-20T12:20:15;3.25;;;2.22;;
77146;SDS011;66121;52.584;9.694;2023-05-20T12:22:44;3.17;;;2.22;;
77146;SDS011;66121;52.584;9.694;2023-05-20T12:25:13;4.40;;;2.50;;
77146;SDS011;66121;52.584;9.694;2023-05-20T12:27:41;4.40;;;2.58;;
77146;SDS011;66121;52.584;9.694;2023-05-20T12:30:07;4.47;;;2.40;;
77146;SDS011;66121;52.584;9.694;2023-05-20T12:32:34;5.45;;;2.50;;
77146;SDS011;66121;52.584;9.694;2023-05-20T12:35:00;4.85;;;2.30;;
77146;SDS011;66121;52.584;9.694;2023-05-20T12:37:25;4.38;;;2.20;;
77146;SDS011;66121;52.584;9.694;2023-05-20T12:39:51;5.97;;;2.53;;
77146;SDS011;66121;52.584;9.694;2023-05-20T12:42:16;3.90;;;2.77;;
77146;SDS011;66121;52.584;9.694;2023-05-20T12:44:41;4.03;;;2.67;;
77146;SDS011;66121;52.584;9.694;2023-05-20T12:47:07;4.40;;;2.67;;
77146;SDS011;66121;52.584;9.694;2023-05-20T12:49:33;3.85;;;2.40;;
77146;SDS011;66121;52.584;9.694;2023-05-20T12:51:58;4.27;;;2.77;;
77146;SDS011;66121;52.584;9.694;2023-05-20T12:54:24;4.73;;;2.90;;
77146;SDS011;66121;52.584;9.694;2023-05-20T12:56:52;4.25;;;3.10;;
77146;SDS011;66121;52.584;9.694;2023-05-20T12:59:17;8.80;;;2.95;;
77146;SDS011;66121;52.584;9.694;2023-05-20T13:01:43;4.20;;;2.57;;
77146;SDS011;66121;52.584;9.694;2023-05-20T13:04:08;3.73;;;2.47;;
77146;SDS011;66121;52.584;9.694;2023-05-20T13:06:33;5.17;;;2.87;;
77146;SDS011;66121;52.584;9.694;2023-05-20T13:08:58;5.30;;;2.72;;
77146;SDS011;66121;52.584;9.694;2023-05-20T13:11:24;7.57;;;2.80;;
77146;SDS011;66121;52.584;9.694;2023-05-20T13:13:49;9.52;;;3.00;;
77146;SDS011;66121;52.584;9.694;2023-05-20T13:16:14;7.90;;;2.90;;
77146;SDS011;66121;52.584;9.694;2023-05-20T13:18:41;4.72;;;3.05;;
77146;SDS011;66121;52.584;9.694;2023-05-20T13:21:07;4.97;;;2.50;;
77146;SDS011;66121;52.584;9.694;2023-05-20T13:23:32;4.17;;;2.57;;
77146;SDS011;66121;52.584;9.694;2023-05-20T13:25:58;6.53;;;2.77;;
77146;SDS011;66121;52.584;9.694;2023-05-20T13:28:23;6.30;;;2.80;;
77146;SDS011;66121;52.584;9.694;2023-05-20T13:30:48;4.90;;;3.20;;
77146;SDS011;66121;52.584;9.694;2023-05-20T13:33:14;5.13;;;3.30;;
77146;SDS011;66121;52.584;9.694;2023-05-20T13:35:39;4.73;;;2.67;;
77146;SDS011;66121;52.584;9.694;2023-05-20T13:38:04;3.93;;;2.50;;
77146;SDS011;66121;52.584;9.694;2023-05-20T13:40:30;4.32;;;2.47;;
77146;SDS011;66121;52.584;9.694;2023-05-20T13:42:55;6.93;;;3.00;;
77146;SDS011;66121;52.584;9.694;2023-05-20T13:45:20;4.63;;;2.60;;
77146;SDS011;66121;52.584;9.694;2023-05-20T13:47:47;3.85;;;3.03;;
77146;SDS011;66121;52.584;9.694;2023-05-20T13:50:12;6.95;;;3.00;;
77146;SDS011;66121;52.584;9.694;2023-05-20T13:52:37;5.57;;;2.83;;
77146;SDS011;66121;52.584;9.694;2023-05-20T13:55:03;5.90;;;2.70;;
77146;SDS011;66121;52.584;9.694;2023-05-20T13:57:28;4.78;;;3.15;;
77146;SDS011;66121;52.584;9.694;2023-05-20T13:59:54;4.78;;;3.10;;
77146;SDS011;66121;52.584;9.694;2023-05-20T14:02:19;4.83;;;3.60;;
77146;SDS011;66121;52.584;9.694;2023-05-20T14:04:44;4.37;;;2.57;;
77146;SDS011;66121;52.584;9.694;2023-05-20T14:07:11;5.38;;;3.13;;
77146;SDS011;66121;52.584;9.694;2023-05-20T14:09:36;4.85;;;2.80;;
77146;SDS011;66121;52.584;9.694;2023-05-20T14:12:02;4.25;;;2.75;;
77146;SDS011;66121;52.584;9.694;2023-05-20T14:14:28;4.65;;;2.90;;
77146;SDS011;66121;52.584;9.694;2023-05-20T14:16:53;6.63;;;3.25;;
77146;SDS011;66121;52.584;9.694;2023-05-20T14:19:18;6.60;;;3.00;;
77146;SDS011;66121;52.584;9.694;2023-05-20T14:21:43;4.97;;;3.07;;
77146;SDS011;66121;52.584;9.694;2023-05-20T14:24:09;5.43;;;3.15;;
77146;SDS011;66121;52.584;9.694;2023-05-20T14:26:34;4.20;;;2.83;;
77146;SDS011;66121;52.584;9.694;2023-05-20T14:29:00;5.53;;;3.15;;
77146;SDS011;66121;52.584;9.694;2023-05-20T14:31:26;5.22;;;3.00;;
77146;SDS011;66121;52.584;9.694;2023-05-20T14:33:51;5.13;;;3.08;;
77146;SDS011;66121;52.584;9.694;2023-05-20T14:36:17;5.15;;;2.85;;
77146;SDS011;66121;52.584;9.694;2023-05-20T14:38:42;4.90;;;3.37;;
77146;SDS011;66121;52.584;9.694;2023-05-20T14:41:07;7.40;;;3.20;;
77146;SDS011;66121;52.584;9.694;2023-05-20T14:43:33;4.53;;;3.33;;
77146;SDS011;66121;52.584;9.694;2023-05-20T14:45:58;5.25;;;3.28;;
77146;SDS011;66121;52.584;9.694;2023-05-20T14:48:23;4.40;;;3.20;;